• Join FlightAware (Why Join?)
  • Login
  • US Flag 
10:15PM EDT


 

Airport Tracker/Info


-or-


 

Live Flight TrackerFlight Track Log ✈ SWA208 ✈ 18-Apr-2013 ✈ KSNA - KSFO

Flight Track Log - Related Links

Times and Time Zones

All times are in EDT time to prevent confusion due to time zone crossing. See the SWA208 flight status page for this flight to view local times or setup timezone preferences in your user account.

Time Position Orientation Groundspeed Altitude Reporting Facility
EDT Latitude Longitude Course Direction KTS MPH feet Rate Location/Type
11:17PM 33.6492 -117.8836 190° South 150 173 1,700  Level Los Angeles Center
11:18PM 33.6053 -117.8931 190° South 182 209 3,600 1,860 Climbing Los Angeles Center
11:19PM 33.5544 -117.9094 195° South 189 217 5,600 2,820 Climbing Los Angeles Center
11:20PM 33.5308 -117.9933 251° West 269 310 9,500 3,540 Climbing Los Angeles Center
11:21PM 33.5803 -118.0736 306° West 291 335 13,000 3,480 Climbing Los Angeles Center
11:22PM 33.6314 -118.1703 302° West 332 382 16,700 3,060 Climbing Los Angeles Center
11:23PM 33.6881 -118.2703 304° West 355 409 19,300 2,580 Climbing Los Angeles Center
11:24PM 33.7528 -118.3886 303° West 398 458 22,000 2,700 Climbing Los Angeles Center
11:25PM 33.8189 -118.5067 304° West 409 471 24,900 2,340 Climbing Los Angeles Center
11:26PM 33.8833 -118.6239 304° West 418 481 26,900 2,040 Climbing Los Angeles Center
11:27PM 33.9506 -118.7444 304° West 432 497 29,200 2,340 Climbing Los Angeles Center
11:28PM 34.0294 -118.8508 312° West 427 491 31,800 2,460 Climbing Los Angeles Center
11:29PM 34.1072 -118.9528 313° West 417 480 34,300 2,580 Climbing Los Angeles Center
11:30PM 34.1997 -119.0667 314° West 397 457 37,200 1,740 Climbing Los Angeles Center
11:31PM 34.2725 -119.1581 314° West 382 440 38,000 360 Climbing Los Angeles Center
11:32PM 34.3469 -119.2517 314° West 386 444 38,000  Level Los Angeles Center
11:34PM 34.4197 -119.3453 313° West 383 441 38,000  Level Los Angeles Center
11:35PM 34.4933 -119.4381 314° West 382 440 38,000  Level Los Angeles Center
11:36PM 34.5661 -119.5311 314° West 382 440 38,000  Level Los Angeles Center
11:37PM 34.6453 -119.6292 314° West 384 442 38,000  Level Los Angeles Center
11:38PM 34.7186 -119.7244 313° West 386 444 38,000  Level Los Angeles Center
11:39PM 34.7933 -119.8175 314° West 386 444 38,000  Level Los Angeles Center
11:40PM 34.8836 -119.9325 314° West 391 450 38,000  Level Los Angeles Center
11:41PM 34.9581 -120.0286 313° West 391 450 38,000  Level Los Angeles Center
11:42PM 35.0450 -120.1403 314° West 396 456 38,000  Level Los Angeles Center
11:43PM 35.1211 -120.2383 314° West 399 459 38,000  Level Los Angeles Center
11:44PM 35.1972 -120.3369 313° West 401 461 38,000  Level Los Angeles Center
11:45PM 35.2897 -120.4581 313° West 402 463 38,000  Level Los Angeles Center
11:46PM 35.3631 -120.5553 313° West 401 461 38,000  Level Los Angeles Center
11:47PM 35.4458 -120.6469 318° Northwest 405 466 38,000  Level Los Angeles Center
11:48PM 35.5322 -120.7325 321° Northwest 402 463 38,000  Level Los Angeles Center
11:49PM 35.6183 -120.8183 321° Northwest 401 461 38,000  Level Los Angeles Center
11:50PM 35.7203 -120.9194 321° Northwest 400 460 38,000  Level Los Angeles Center
11:51PM 35.8047 -121.0050 321° Northwest 397 457 38,000 -420 Level Oakland Center
11:52PM 35.8900 -121.0903 321° Northwest 394 453 37,200 -900 Descending Oakland Center
11:53PM 35.9764 -121.1767 321° Northwest 398 458 36,200 -1,020 Descending Oakland Center
11:54PM 36.0608 -121.2642 320° Northwest 397 457 35,200 -1,020 Descending Oakland Center
11:55PM 36.1489 -121.3531 321° Northwest 404 465 34,200 -1,680 Descending Oakland Center
11:56PM 36.2333 -121.4411 320° Northwest 399 459 31,800 -2,280 Descending Oakland Center
11:57PM 36.3172 -121.5253 321° Northwest 387 445 29,600 -2,220 Descending Oakland Center
11:58PM 36.3947 -121.6072 320° Northwest 366 421 27,400 -2,160 Descending Oakland Center
11:59PM 36.4736 -121.6842 322° Northwest 359 413 25,300 -2,340 Descending Oakland Center
12:00AM 36.5167 -121.7167 329° Northwest 356 410 24,300 -1,980 Descending Northern Cal TRACON
12:01AM 36.5833 -121.8000 315° West 342 394 22,700 -1,740 Descending Northern Cal TRACON
12:02AM 36.6500 -121.8667 321° Northwest 340 391 20,900 -1,860 Descending Northern Cal TRACON
12:03AM 36.7333 -121.9500 321° Northwest 330 380 19,000 -1,800 Descending Northern Cal TRACON
12:04AM 36.8000 -121.9833 338° Northwest 316 364 17,500 -1,920 Descending Northern Cal TRACON
12:05AM 36.9000 -122.0000 352° North 310 357 15,200 -1,860 Descending Northern Cal TRACON
12:05AM 36.9456 -122.0161 344° North 308 354 14,100 -1,860 Descending Oakland Center
12:06AM 37.0422 -122.0411 348° North 295 339 11,900 -1,920 Descending Oakland Center
12:07AM 37.1253 -122.0631 348° North 304 350 10,300 -960 Descending Oakland Center
12:09AM 37.1944 -122.0983 338° Northwest 279 321 10,000 -480 Descending Oakland Center
12:10AM 37.2528 -122.1514 324° Northwest 261 300 9,400 -840 Descending Oakland Center
12:11AM 37.3069 -122.2025 323° Northwest 245 282 8,400 -1,020 Descending Oakland Center
12:12AM 37.3606 -122.2503 325° Northwest 237 273 7,400 -1,020 Descending Oakland Center
12:13AM 37.4028 -122.2239 26° Northeast 231 266 6,400 -1,020 Descending Oakland Center
12:14AM 37.4053 -122.1436 88° East 233 268 5,400 -1,020 Descending Oakland Center
12:15AM 37.4592 -122.1192 20° North 214 246 4,400 -780 Descending Oakland Center
12:16AM 37.5150 -122.1378 345° North 219 252 3,900 -840 Descending Oakland Center
12:17AM 37.5436 -122.2008 300° West 212 244 2,700 -1,020 Descending Oakland Center
12:18AM 37.5653 -122.2522 298° West 190 219 1,900 -900 Descending Oakland Center
12:19AM 37.5897 -122.3097 298° West 169 194 900 -840 Descending Oakland Center
12:20AM 37.6042 -122.3456 297° West 138 159 300 -600 Descending Oakland Center